createdAt,value
2022-12-25T00:03:26.568Z,4.30
2022-12-25T00:08:29.841Z,6.68
2022-12-25T00:13:33.062Z,6.20
2022-12-25T00:18:36.207Z,6.63
2022-12-25T00:23:39.597Z,5.78
2022-12-25T00:28:43.000Z,7.18
2022-12-25T00:33:48.053Z,7.25
2022-12-25T00:38:51.248Z,8.60
2022-12-25T00:43:54.557Z,3.65
2022-12-25T00:54:18.063Z,3.38
2022-12-25T00:59:21.228Z,3.83
2022-12-25T01:04:24.275Z,3.72
2022-12-25T01:09:45.612Z,10.57
2022-12-25T01:14:50.309Z,2.55
2022-12-25T01:19:53.355Z,6.28
2022-12-25T01:24:56.380Z,16.10
2022-12-25T01:30:00.393Z,5.25
2022-12-25T01:35:03.681Z,2.63
2022-12-25T01:40:07.515Z,4.78
2022-12-25T01:45:40.934Z,2.53
2022-12-25T01:50:50.168Z,4.47
2022-12-25T01:55:59.182Z,3.35
2022-12-25T02:01:02.437Z,3.95
2022-12-25T02:06:05.981Z,4.93
2022-12-25T02:11:29.820Z,1.75
2022-12-25T02:16:58.317Z,1.55
2022-12-25T02:22:29.912Z,6.88
2022-12-25T02:27:51.427Z,6.15
2022-12-25T02:33:19.198Z,5.85
2022-12-25T02:38:33.667Z,3.55
2022-12-25T02:44:00.807Z,5.03
2022-12-25T02:49:27.713Z,2.30
2022-12-25T02:54:59.459Z,3.72
2022-12-25T03:00:22.504Z,3.45
2022-12-25T03:05:45.637Z,7.47
2022-12-25T03:11:21.904Z,3.20
2022-12-25T03:16:43.576Z,1.42
2022-12-25T03:22:05.878Z,4.32
2022-12-25T03:27:09.062Z,10.80
2022-12-25T03:32:34.363Z,3.92
2022-12-25T03:37:46.102Z,2.72
2022-12-25T03:43:17.508Z,2.40
2022-12-25T03:48:40.283Z,2.42
2022-12-25T03:54:09.453Z,6.13
2022-12-25T03:59:31.188Z,5.03
2022-12-25T04:04:52.724Z,4.13
2022-12-25T04:10:14.961Z,8.48
2022-12-25T04:15:36.578Z,3.10
2022-12-25T04:20:58.239Z,4.88
2022-12-25T04:26:19.898Z,4.20
2022-12-25T04:31:41.494Z,6.47
2022-12-25T04:36:44.687Z,4.18
2022-12-25T04:41:47.734Z,6.72
2022-12-25T04:46:50.929Z,3.35
2022-12-25T04:51:54.134Z,7.85
2022-12-25T04:57:05.159Z,11.10
2022-12-25T05:02:08.733Z,11.07
2022-12-25T05:07:11.983Z,9.48
2022-12-25T05:12:15.083Z,5.68
2022-12-25T05:17:18.296Z,5.13
2022-12-25T05:22:21.315Z,6.40
2022-12-25T05:27:24.497Z,7.72
2022-12-25T05:32:27.556Z,3.63
2022-12-25T05:37:30.637Z,5.25
2022-12-25T05:42:34.823Z,8.38
2022-12-25T05:47:37.876Z,5.57
2022-12-25T05:52:40.963Z,9.10
2022-12-25T05:57:44.020Z,7.75
2022-12-25T06:02:47.136Z,8.65
2022-12-25T06:07:50.347Z,5.15
2022-12-25T06:12:53.525Z,9.82
2022-12-25T06:17:56.628Z,8.30
2022-12-25T06:23:00.819Z,7.28
2022-12-25T06:28:03.995Z,10.90
2022-12-25T06:33:07.039Z,23.27
2022-12-25T06:38:10.172Z,11.80
2022-12-25T06:48:36.926Z,11.95
2022-12-25T06:53:40.913Z,26.60
2022-12-25T06:58:49.893Z,16.77
2022-12-25T07:03:56.722Z,19.27
2022-12-25T07:08:59.839Z,20.98
2022-12-25T07:14:03.049Z,26.30
2022-12-25T07:19:06.072Z,33.08
2022-12-25T07:24:09.159Z,26.77
2022-12-25T07:29:12.456Z,27.80
2022-12-25T07:34:17.354Z,36.10
2022-12-25T07:39:20.421Z,39.72
2022-12-25T07:44:23.578Z,27.38
2022-12-25T07:49:26.763Z,35.65
2022-12-25T07:54:29.896Z,32.13
2022-12-25T07:59:32.900Z,31.10
2022-12-25T08:04:35.934Z,40.08
2022-12-25T08:09:39.014Z,30.92
2022-12-25T08:14:42.493Z,26.70
2022-12-25T08:19:45.571Z,32.95
2022-12-25T08:24:48.699Z,32.40
2022-12-25T08:29:51.819Z,27.52
2022-12-25T08:34:54.882Z,18.85
2022-12-25T08:39:57.920Z,26.02
2022-12-25T08:45:01.019Z,30.63
2022-12-25T08:50:06.821Z,37.72
2022-12-25T08:55:10.200Z,35.38
2022-12-25T09:00:13.786Z,69.05
2022-12-25T09:05:16.868Z,39.58
2022-12-25T09:10:19.949Z,36.40
2022-12-25T09:15:23.028Z,69.60
2022-12-25T09:20:26.141Z,49.05
2022-12-25T09:25:29.275Z,47.92
2022-12-25T09:30:32.320Z,39.70
2022-12-25T09:35:35.570Z,68.40
2022-12-25T09:40:38.739Z,66.65
2022-12-25T09:45:44.133Z,78.93
2022-12-25T09:50:53.494Z,72.32
2022-12-25T09:56:11.060Z,60.88
2022-12-25T10:01:22.900Z,64.30
2022-12-25T10:06:31.156Z,53.22
2022-12-25T10:11:52.193Z,49.17
2022-12-25T10:17:17.004Z,52.00
2022-12-25T10:22:30.721Z,63.38
2022-12-25T10:27:40.187Z,62.92
2022-12-25T10:32:44.846Z,69.38
2022-12-25T10:38:15.364Z,78.22
2022-12-25T10:43:44.129Z,58.22
2022-12-25T10:49:13.821Z,59.58
2022-12-25T10:54:37.688Z,48.85
2022-12-25T10:59:49.404Z,47.97
2022-12-25T11:05:01.766Z,53.60
2022-12-25T11:10:33.453Z,48.08
2022-12-25T11:15:45.140Z,45.45
2022-12-25T11:20:56.027Z,46.63
2022-12-25T11:26:07.873Z,29.75
2022-12-25T11:36:46.454Z,34.47
2022-12-25T11:41:54.995Z,38.08
2022-12-25T11:47:28.040Z,40.78
2022-12-25T11:52:36.871Z,38.03
2022-12-25T11:57:41.856Z,36.65
2022-12-25T12:02:47.744Z,44.80
2022-12-25T12:07:59.272Z,38.55
2022-12-25T12:13:16.287Z,53.22
2022-12-25T12:18:29.991Z,61.65
2022-12-25T12:24:01.736Z,55.72
2022-12-25T12:29:08.569Z,89.03
2022-12-25T12:34:48.371Z,75.97
2022-12-25T12:39:54.266Z,71.45
2022-12-25T12:45:06.784Z,87.38
2022-12-25T12:55:48.797Z,106.47
2022-12-25T13:01:14.386Z,97.18
2022-12-25T13:06:55.849Z,87.22
2022-12-25T13:11:59.242Z,72.72
2022-12-25T13:17:02.503Z,71.90
2022-12-25T13:22:07.523Z,95.95
2022-12-25T13:27:25.031Z,92.25
2022-12-25T13:32:32.175Z,49.47
2022-12-25T13:37:35.713Z,62.50
2022-12-25T13:42:42.058Z,51.70
2022-12-25T13:47:51.446Z,67.05
2022-12-25T13:53:10.452Z,80.50
2022-12-25T14:03:47.322Z,77.00
2022-12-25T14:08:51.578Z,86.55
2022-12-25T14:14:01.888Z,81.97
2022-12-25T14:19:29.191Z,76.18
2022-12-25T14:24:35.103Z,77.80
2022-12-25T14:29:43.148Z,71.72
2022-12-25T14:34:49.843Z,93.68
2022-12-25T14:40:24.998Z,70.97
2022-12-25T14:45:38.740Z,55.65
2022-12-25T14:51:01.716Z,46.03
2022-12-25T14:56:07.182Z,43.30
2022-12-25T15:01:39.611Z,38.17
2022-12-25T15:06:53.045Z,26.42
2022-12-25T15:11:57.003Z,32.80
2022-12-25T15:17:01.732Z,34.20
2022-12-25T15:22:05.102Z,30.02
2022-12-25T15:27:19.171Z,32.97
2022-12-25T15:32:24.646Z,44.22
2022-12-25T15:37:27.727Z,32.25
2022-12-25T15:42:30.831Z,28.48
2022-12-25T15:47:34.101Z,32.20
2022-12-25T15:52:37.204Z,26.65
2022-12-25T15:57:45.722Z,21.52
2022-12-25T16:02:50.352Z,25.92
2022-12-25T16:07:53.569Z,23.92
2022-12-25T16:12:56.624Z,27.55
2022-12-25T16:17:59.680Z,16.70
2022-12-25T16:23:02.737Z,26.00
2022-12-25T16:28:09.843Z,32.83
2022-12-25T16:38:15.764Z,39.95
2022-12-25T16:43:23.794Z,33.45
2022-12-25T16:48:27.277Z,28.80
2022-12-25T16:53:30.486Z,27.42
2022-12-25T16:58:33.671Z,31.10
2022-12-25T17:03:37.013Z,23.88
2022-12-25T17:08:43.967Z,23.08
2022-12-25T17:13:48.577Z,14.77
2022-12-25T17:19:01.588Z,19.40
2022-12-25T17:24:05.277Z,23.40
2022-12-25T17:29:09.075Z,18.88
2022-12-25T17:34:12.455Z,25.55
2022-12-25T17:39:15.559Z,23.50
2022-12-25T17:44:19.152Z,31.85
2022-12-25T17:49:23.725Z,26.38
2022-12-25T17:54:26.807Z,21.42
2022-12-25T17:59:30.224Z,24.25
2022-12-25T18:04:33.578Z,19.75
2022-12-25T18:09:40.023Z,21.60
2022-12-25T18:14:45.588Z,19.10
2022-12-25T18:19:51.861Z,21.73
2022-12-25T18:24:54.897Z,22.58
2022-12-25T18:29:58.020Z,24.02
2022-12-25T18:40:18.956Z,13.82
2022-12-25T18:45:25.057Z,10.68
2022-12-25T18:50:30.525Z,15.75
2022-12-25T18:55:36.612Z,11.63
2022-12-25T19:00:39.852Z,9.70
2022-12-25T19:05:43.695Z,11.05
2022-12-25T19:10:46.849Z,7.32
2022-12-25T19:21:10.506Z,11.10
2022-12-25T19:26:13.616Z,11.07
2022-12-25T19:31:17.113Z,11.02
2022-12-25T19:36:20.306Z,8.15
2022-12-25T19:41:23.387Z,11.27
2022-12-25T19:46:29.480Z,12.27
2022-12-25T19:51:36.636Z,10.13
2022-12-25T19:56:39.929Z,11.27
2022-12-25T20:01:43.205Z,8.65
2022-12-25T20:06:46.484Z,11.13
2022-12-25T20:11:49.860Z,9.93
2022-12-25T20:16:53.162Z,6.88
2022-12-25T20:21:56.293Z,10.32
2022-12-25T20:26:59.682Z,5.80
2022-12-25T20:32:03.318Z,8.15
2022-12-25T20:37:06.411Z,7.38
2022-12-25T20:42:09.669Z,8.70
2022-12-25T20:47:13.661Z,9.25
2022-12-25T20:52:16.769Z,12.90
2022-12-25T20:57:19.891Z,5.93
2022-12-25T21:02:35.918Z,8.50
2022-12-25T21:07:39.601Z,8.40
2022-12-25T21:12:42.632Z,11.77
2022-12-25T21:17:45.682Z,9.02
2022-12-25T21:22:48.796Z,9.75
2022-12-25T21:27:51.875Z,6.78
2022-12-25T21:33:16.876Z,10.52
2022-12-25T21:43:23.108Z,14.23
2022-12-25T21:48:26.158Z,12.63
2022-12-25T21:53:29.192Z,7.15
2022-12-25T21:58:35.178Z,12.10
2022-12-25T22:03:38.617Z,7.25
2022-12-25T22:08:41.918Z,13.60
2022-12-25T22:14:03.514Z,12.90
2022-12-25T22:19:25.148Z,11.35
2022-12-25T22:24:28.279Z,9.00
2022-12-25T22:29:31.337Z,8.13
2022-12-25T22:34:34.495Z,13.68
2022-12-25T22:39:38.268Z,16.77
2022-12-25T22:44:41.377Z,9.38
2022-12-25T22:49:44.598Z,9.52
2022-12-25T22:54:47.646Z,11.75
2022-12-25T22:59:53.223Z,8.30
2022-12-25T23:04:56.433Z,9.77
2022-12-25T23:09:59.467Z,5.55
2022-12-25T23:15:02.472Z,8.88
2022-12-25T23:20:26.153Z,9.10
2022-12-25T23:25:48.376Z,15.88
2022-12-25T23:30:51.461Z,9.05
2022-12-25T23:35:54.492Z,10.25
2022-12-25T23:40:57.527Z,12.48
2022-12-25T23:46:00.675Z,13.73
2022-12-25T23:51:07.269Z,17.02
2022-12-25T23:56:10.810Z,11.75
